.
WxDataArchive / Data Records for 2008-11-07
2008-11-06 November 2008 2008-11-08

Data Records for Friday, 07 November 2008

Time	Temp	Chill	HIndex	Humid	Dewpt	 Wind 	HiWind	WindDir	Rain 	Barom 
-----	----	-----	------	-----	-----	------	------	-------	-----	----- 
00:00	60.2	60.2	60.2	61	46.7	0	0	---	0.00	29.809 
00:05	60.2	60.2	60.2	61	46.7	0	1	112	0.00	29.808 
00:10	60.1	60.1	60.1	61	46.6	0	0	---	0.00	29.808 
00:15	60.2	60.2	60.2	60	46.3	0	1	112	0.00	29.807 
00:20	60.2	60.2	60.2	61	46.7	0	0	---	0.00	29.806 
00:25	60.2	60.2	60.2	61	46.7	0	0	---	0.00	29.807 
00:30	60.1	60.1	60.1	61	46.6	0	1	112	0.00	29.806 
00:35	60.1	60.1	60.1	60	46.2	0	0	---	0.00	29.806 
00:40	60.1	60.1	60.1	60	46.2	0	0	---	0.00	29.806 
00:45	60.2	60.2	60.2	60	46.3	0	3	270	0.00	29.805 
00:50	60.5	60.5	60.5	60	46.5	0	2	270	0.00	29.805 
00:55	60.9	60.9	60.9	61	47.4	0	1	270	0.00	29.804 
01:00	61.3	61.3	61.3	62	48.2	1	4	248	0.00	29.801 
01:05	61.5	61.5	61.5	62	48.4	1	2	248	0.00	29.798 
01:10	61.5	61.5	61.5	66	50.0	0	2	248	0.00	29.798 
01:15	60.9	60.9	60.9	71	51.4	0	1	248	0.01	29.802 
01:20	60.1	60.1	60.1	75	52.1	0	1	248	0.01	29.801 
01:25	59.3	59.3	59.3	79	52.8	0	1	248	0.00	29.795 
01:30	58.9	58.9	58.9	82	53.4	0	1	248	0.00	29.798 
01:35	58.3	58.3	58.3	84	53.5	0	1	248	0.01	29.796 
01:40	58.0	58.0	58.0	86	53.8	0	3	248	0.00	29.796 
01:45	57.6	57.6	57.6	87	53.8	0	1	248	0.00	29.795 
01:50	57.5	57.5	57.5	88	54.0	0	1	248	0.00	29.792 
01:55	57.5	57.5	57.5	89	54.3	0	1	248	0.00	29.792 
02:00	57.3	57.3	57.3	89	54.1	0	0	---	0.00	29.794 
02:05	57.3	57.3	57.3	90	54.4	0	0	---	0.00	29.794 
02:10	57.2	57.2	57.2	91	54.6	0	0	---	0.00	29.793 
02:15	57.2	57.2	57.2	91	54.6	0	1	248	0.00	29.791 
02:20	57.2	57.2	57.2	91	54.6	0	0	---	0.01	29.790 
02:25	57.2	57.2	57.2	91	54.6	0	1	248	0.00	29.786 
02:30	57.0	57.0	57.0	92	54.7	0	1	248	0.00	29.783 
02:35	57.0	57.0	57.0	92	54.7	0	1	248	0.00	29.784 
02:40	57.0	57.0	57.0	92	54.7	0	0	---	0.00	29.787 
02:45	56.9	56.9	56.9	92	54.6	0	0	---	0.00	29.789 
02:50	56.9	56.9	56.9	92	54.6	0	1	248	0.00	29.790 
02:55	56.7	56.7	56.7	92	54.4	0	2	225	0.00	29.782 
03:00	56.6	56.6	56.6	92	54.3	0	1	225	0.00	29.773 
03:05	56.5	56.5	56.5	92	54.2	0	1	225	0.00	29.776 
03:10	56.3	56.3	56.3	92	54.0	0	2	225	0.00	29.777 
03:15	56.2	56.2	56.2	92	53.9	0	2	158	0.00	29.782 
03:20	56.2	56.2	56.2	92	53.9	0	2	135	0.00	29.777 
03:25	56.0	56.0	56.0	92	53.7	0	2	135	0.00	29.776 
03:30	56.0	56.0	56.0	92	53.7	0	1	135	0.00	29.771 
03:35	56.0	56.0	56.0	93	54.0	0	0	---	0.00	29.767 
03:40	56.0	56.0	56.0	93	54.0	0	1	135	0.00	29.765 
03:45	56.0	56.0	56.0	93	54.0	0	0	---	0.00	29.763 
03:50	56.0	56.0	56.0	93	54.0	0	0	---	0.00	29.763 
03:55	56.2	56.2	56.2	93	54.2	0	1	135	0.00	29.765 
04:00	56.2	56.2	56.2	93	54.2	0	1	135	0.00	29.760 
04:05	56.2	56.2	56.2	93	54.2	0	1	135	0.00	29.761 
04:10	56.3	56.3	56.3	94	54.6	0	1	135	0.00	29.762 
04:15	56.3	56.3	56.3	94	54.6	0	1	135	0.00	29.763 
04:20	56.3	56.3	56.3	94	54.6	0	0	---	0.00	29.762 
04:25	56.3	56.3	56.3	94	54.6	0	0	---	0.00	29.762 
04:30	56.3	56.3	56.3	94	54.6	0	0	---	0.00	29.764 
04:35	56.2	56.2	56.2	94	54.5	0	0	---	0.00	29.766 
04:40	56.2	56.2	56.2	94	54.5	0	1	135	0.00	29.765 
04:45	56.2	56.2	56.2	94	54.5	0	1	135	0.00	29.762 
04:50	56.2	56.2	56.2	94	54.5	0	1	135	0.00	29.761 
04:55	56.2	56.2	56.2	94	54.5	0	1	135	0.00	29.761 
05:00	56.0	56.0	56.0	94	54.3	0	1	135	0.00	29.761 
05:05	56.0	56.0	56.0	94	54.3	0	1	135	0.00	29.763 
05:10	56.0	56.0	56.0	94	54.3	0	0	---	0.00	29.764 
05:15	56.0	56.0	56.0	94	54.3	0	0	---	0.00	29.761 
05:20	56.0	56.0	56.0	94	54.3	0	1	135	0.00	29.761 
05:25	56.0	56.0	56.0	94	54.3	0	0	---	0.01	29.755 
05:30	56.0	56.0	56.0	94	54.3	0	0	---	0.00	29.761 
05:35	56.0	56.0	56.0	94	54.3	0	0	---	0.00	29.759 
05:40	56.0	56.0	56.0	95	54.6	0	2	135	0.00	29.762 
05:45	56.2	56.2	56.2	95	54.8	1	3	248	0.00	29.761 
05:50	56.2	56.2	56.2	95	54.8	1	2	248	0.00	29.761 
05:55	56.2	56.2	56.2	95	54.8	0	2	248	0.00	29.755 
06:00	56.0	56.0	56.0	94	54.3	0	1	248	0.00	29.755 
06:05	55.7	55.7	55.7	94	54.0	1	3	248	0.00	29.757 
06:10	55.3	55.3	55.3	92	53.0	1	5	248	0.00	29.758 
06:15	55.1	55.1	55.1	90	52.2	2	5	248	0.00	29.754 
06:20	55.0	55.0	55.0	88	51.5	1	4	248	0.00	29.756 
06:25	55.0	55.0	55.0	86	50.9	1	5	248	0.00	29.757 
06:30	55.0	55.0	55.0	84	50.3	1	6	248	0.00	29.756 
06:35	55.0	55.0	55.0	81	49.3	1	4	248	0.00	29.755 
06:40	55.1	55.1	55.1	79	48.7	0	2	248	0.00	29.754 
06:45	55.1	55.1	55.1	78	48.4	1	4	248	0.00	29.754 
06:50	55.1	55.1	55.1	78	48.4	1	5	248	0.00	29.754 
06:55	55.1	55.1	55.1	78	48.4	0	3	248	0.00	29.753 
07:00	55.1	55.1	55.1	78	48.4	0	2	248	0.00	29.753 
07:05	55.0	55.0	55.0	77	47.9	1	6	248	0.00	29.753 
07:10	55.0	55.0	55.0	74	46.9	1	4	248	0.00	29.753 
07:15	55.0	55.0	55.0	73	46.5	1	4	248	0.00	29.754 
07:20	55.0	55.0	55.0	72	46.1	1	5	248	0.00	29.754 
07:25	54.8	54.8	54.8	69	44.8	1	7	248	0.00	29.754 
07:30	54.8	54.8	54.8	70	45.2	1	4	248	0.00	29.754 
07:35	54.8	54.8	54.8	68	44.4	2	5	248	0.00	29.753 
07:40	54.8	54.8	54.8	68	44.4	1	6	248	0.00	29.754 
07:45	54.7	54.7	54.7	69	44.7	0	2	248	0.00	29.753 
07:50	54.5	54.5	54.5	70	44.9	0	1	248	0.00	29.753 
07:55	54.4	54.4	54.4	70	44.8	0	1	248	0.00	29.753 
08:00	54.4	54.4	54.4	71	45.2	0	1	248	0.00	29.753 
08:05	54.2	54.2	54.2	69	44.3	0	2	248	0.00	29.753 
08:10	54.2	54.2	54.2	68	43.9	0	3	248	0.00	29.753 
08:15	54.2	54.2	54.2	65	42.7	1	3	248	0.00	29.755 
08:20	54.4	54.4	54.4	65	42.9	1	5	225	0.00	29.755 
08:25	54.5	54.5	54.5	65	43.0	0	2	225	0.00	29.754 
08:30	54.5	54.5	54.5	63	42.2	0	2	225	0.00	29.753 
08:35	54.5	54.5	54.5	62	41.7	1	3	248	0.00	29.754 
08:40	54.7	54.7	54.7	64	42.8	0	1	248	0.00	29.754 
08:45	54.7	54.7	54.7	60	41.1	2	5	248	0.00	29.755 
08:50	54.8	54.8	54.8	61	41.6	0	3	225	0.00	29.754 
08:55	54.8	54.8	54.8	62	42.0	0	2	225	0.00	29.754 
09:00	54.8	54.8	54.8	62	42.0	0	1	225	0.00	29.755 
09:05	55.0	55.0	55.0	64	43.0	0	1	225	0.00	29.754 
09:10	55.3	55.3	55.3	60	41.7	1	3	225	0.00	29.754 
09:15	55.7	55.7	55.7	59	41.6	1	4	248	0.00	29.752 
09:20	56.0	56.0	56.0	58	41.4	1	3	248	0.00	29.749 
09:25	56.0	56.0	56.0	58	41.4	1	3	248	0.00	29.746 
09:30	56.2	56.2	56.2	59	42.1	0	4	270	0.00	29.744 
09:35	56.5	56.5	56.5	61	43.2	0	2	22	0.00	29.747 
09:40	56.6	56.6	56.6	58	42.0	0	4	225	0.00	29.745 
09:45	56.7	56.7	56.7	58	42.1	0	3	248	0.00	29.743 
09:50	56.7	56.7	56.7	58	42.1	1	3	248	0.00	29.738 
09:55	56.9	56.9	56.9	53	39.9	0	2	248	0.00	29.736 
10:00	57.0	57.0	57.0	54	40.5	1	3	68	0.00	29.734 
10:05	57.3	57.3	57.3	50	38.8	1	4	248	0.00	29.735 
10:10	57.5	57.5	57.5	50	39.0	1	3	248	0.00	29.733 
10:15	57.6	57.6	57.6	48	38.1	1	5	90	0.00	29.730 
10:20	57.8	57.8	57.8	49	38.8	1	4	270	0.00	29.725 
10:25	58.0	58.0	58.0	50	39.5	1	5	270	0.00	29.722 
10:30	58.1	58.1	58.1	48	38.5	1	5	270	0.00	29.722 
10:35	58.1	58.1	58.1	50	39.6	1	4	248	0.00	29.722 
10:40	58.3	58.3	58.3	50	39.7	1	5	270	0.00	29.721 
10:45	58.3	58.3	58.3	46	37.6	2	5	248	0.00	29.720 
10:50	58.3	58.3	58.3	46	37.6	2	6	270	0.00	29.718 
10:55	58.4	58.4	58.4	48	38.8	1	5	248	0.00	29.714 
11:00	58.6	58.6	58.6	48	39.0	1	6	270	0.00	29.709 
11:05	58.9	58.9	58.9	46	38.2	2	6	270	0.00	29.710 
11:10	59.0	59.0	59.0	45	37.7	1	5	292	0.00	29.706 
11:15	59.3	59.3	59.3	42	36.2	2	5	292	0.00	29.705 
11:20	59.3	59.3	59.3	41	35.6	2	6	248	0.00	29.702 
11:25	59.5	59.5	59.5	43	37.0	3	7	248	0.00	29.698 
11:30	59.5	59.5	59.5	39	34.5	3	7	248	0.00	29.694 
11:35	59.6	59.6	59.6	40	35.3	3	9	248	0.00	29.690 
11:40	59.9	59.9	59.9	41	36.1	2	7	270	0.00	29.686 
11:45	60.1	60.1	60.1	39	35.1	2	5	248	0.00	29.683 
11:50	60.1	60.1	60.1	40	35.7	2	6	90	0.00	29.678 
11:55	60.1	60.1	60.1	38	34.4	3	7	68	0.00	29.675 
12:00	60.2	60.2	60.2	39	35.2	2	6	248	0.00	29.674 
12:05	60.2	60.2	60.2	37	33.8	4	9	270	0.00	29.671 
12:10	60.4	60.4	60.4	41	36.6	2	9	248	0.00	29.664 
12:15	60.7	60.7	60.7	39	35.6	2	6	270	0.00	29.656 
12:20	60.9	60.9	60.9	36	33.8	4	10	270	0.00	29.655 
12:25	61.0	61.0	61.0	36	33.9	4	7	270	0.00	29.654 
12:30	61.2	61.2	61.2	36	34.0	3	11	248	0.00	29.653 
12:35	61.3	61.3	61.3	38	35.5	2	8	248	0.00	29.650 
12:40	61.6	61.6	61.6	37	35.1	3	9	225	0.00	29.648 
12:45	61.8	61.8	61.8	39	36.6	2	7	270	0.00	29.649 
12:50	62.0	62.0	62.0	41	38.0	3	8	248	0.00	29.643 
12:55	61.8	61.8	61.8	39	36.6	2	5	45	0.00	29.642 
13:00	61.5	61.5	61.5	43	38.8	1	4	248	0.00	29.641 
13:05	61.8	61.8	61.8	42	38.5	1	4	248	0.00	29.643 
13:10	62.1	62.1	62.1	37	35.5	2	6	248	0.00	29.641 
13:15	62.3	62.3	62.3	37	35.7	1	5	248	0.00	29.644 
13:20	62.6	62.6	62.6	39	37.3	2	6	68	0.00	29.642 
13:25	62.6	62.6	62.6	37	36.0	2	6	90	0.00	29.640 
13:30	62.1	62.1	62.1	40	37.5	1	5	0	0.00	29.638 
13:35	62.1	62.1	62.1	36	34.8	1	8	270	0.00	29.632 
13:40	62.3	62.3	62.3	33	32.8	3	10	248	0.00	29.632 
13:45	62.4	62.4	62.4	33	32.9	4	10	248	0.00	29.630 
13:50	62.4	62.4	62.4	35	34.4	2	7	248	0.00	29.629 
13:55	62.7	62.7	62.7	35	34.7	3	10	248	0.00	29.626 
14:00	62.7	62.7	62.7	34	33.9	3	10	270	0.00	29.625 
14:05	63.1	63.1	63.1	33	33.5	4	11	248	0.00	29.623 
14:10	63.2	63.2	63.2	35	35.1	2	6	248	0.00	29.621 
14:15	63.5	63.5	63.5	33	33.9	3	9	270	0.00	29.616 
14:20	63.7	63.7	63.7	33	34.1	3	12	248	0.00	29.615 
14:25	63.5	63.5	63.5	35	35.4	3	8	248	0.00	29.612 
14:30	63.5	63.5	63.5	36	36.1	2	7	248	0.00	29.611 
14:35	63.4	63.4	63.4	34	34.5	2	6	292	0.00	29.610 
14:40	63.2	63.2	63.2	36	35.8	2	5	68	0.00	29.607 
14:45	63.2	63.2	63.2	35	35.1	3	11	248	0.00	29.605 
14:50	63.1	63.1	63.1	33	33.5	3	10	248	0.00	29.601 
14:55	63.1	63.1	63.1	33	33.5	4	12	270	0.00	29.600 
15:00	63.5	63.5	63.5	32	33.1	4	10	248	0.00	29.603 
15:05	63.9	63.9	63.9	35	35.7	2	7	248	0.00	29.603 
15:10	63.9	63.9	63.9	32	33.5	4	11	248	0.00	29.601 
15:15	63.5	63.5	63.5	32	33.1	4	10	248	0.00	29.597 
15:20	63.7	63.7	63.7	32	33.3	2	7	248	0.00	29.596 
15:25	63.5	63.5	63.5	31	32.3	4	10	248	0.00	29.596 
15:30	63.4	63.4	63.4	31	32.2	5	12	248	0.00	29.598 
15:35	63.1	63.1	63.1	31	32.0	4	10	270	0.00	29.598 
15:40	62.7	62.7	62.7	32	32.4	5	11	248	0.00	29.599 
15:45	62.6	62.6	62.6	33	33.1	4	13	248	0.00	29.603 
15:50	62.3	62.3	62.3	33	32.8	5	11	248	0.00	29.599 
15:55	62.1	62.1	62.1	33	32.7	4	9	270	0.00	29.601 
16:00	62.0	62.0	62.0	34	33.3	4	11	248	0.00	29.601 
16:05	61.6	61.6	61.6	33	32.2	5	12	248	0.00	29.599 
16:10	61.3	61.3	61.3	32	31.2	4	10	248	0.00	29.600 
16:15	60.9	60.9	60.9	29	28.4	5	13	248	0.00	29.601 
16:20	60.7	60.7	60.7	30	29.1	4	11	248	0.00	29.601 
16:25	60.5	60.5	60.5	29	28.1	4	9	270	0.00	29.602 
16:30	60.4	60.4	60.4	31	29.6	2	9	248	0.00	29.601 
16:35	60.1	60.1	60.1	31	29.4	4	13	248	0.00	29.601 
16:40	59.9	59.9	59.9	31	29.2	4	10	248	0.00	29.600 
16:45	59.6	59.6	59.6	31	28.9	3	10	270	0.00	29.599 
16:50	59.5	59.5	59.5	31	28.8	4	11	270	0.00	29.602 
16:55	59.3	59.3	59.3	31	28.7	3	9	248	0.00	29.602 
17:00	59.2	59.2	59.2	31	28.6	4	11	248	0.00	29.604 
17:05	58.9	58.9	58.9	31	28.3	4	11	270	0.00	29.604 
17:10	58.9	58.9	58.9	31	28.3	5	12	248	0.00	29.605 
17:15	58.6	58.6	58.6	34	30.3	4	15	248	0.00	29.609 
17:20	57.8	57.8	57.8	42	34.9	3	11	270	0.00	29.615 
17:25	56.7	56.7	56.7	43	34.5	3	6	248	0.00	29.617 
17:30	56.3	56.3	56.3	44	34.7	2	8	248	0.00	29.618 
17:35	55.6	55.6	55.6	45	34.6	2	4	270	0.00	29.619 
17:40	55.3	55.3	55.3	46	34.9	2	5	248	0.00	29.625 
17:45	54.7	54.7	54.7	47	34.9	4	11	270	0.00	29.631 
17:50	54.2	54.2	54.2	48	34.9	2	5	248	0.00	29.631 
17:55	53.8	53.8	53.8	50	35.6	1	3	248	0.00	29.635 
18:00	53.3	53.3	53.3	51	35.6	2	10	270	0.00	29.635 
18:05	52.8	52.8	52.8	53	36.1	3	10	248	0.00	29.640 
18:10	52.0	52.0	52.0	55	36.3	2	6	270	0.00	29.645 
18:15	51.3	51.3	51.3	57	36.6	3	9	270	0.00	29.652 
18:20	50.4	50.4	50.4	58	36.2	4	9	270	0.00	29.653 
18:25	49.8	49.8	49.8	59	36.1	2	5	270	0.00	29.656 
18:30	49.4	49.4	49.4	60	36.1	2	6	270	0.00	29.657 
18:35	49.1	49.1	49.1	61	36.2	3	6	248	0.00	29.663 
18:40	48.6	48.6	48.6	61	35.8	2	9	270	0.00	29.665 
18:45	48.3	48.3	48.3	62	35.9	3	9	270	0.00	29.671 
18:50	47.9	47.9	47.9	62	35.5	2	6	270	0.00	29.674 
18:55	47.6	47.6	47.6	63	35.6	2	7	270	0.00	29.674 
19:00	47.0	47.0	47.0	63	35.1	2	5	270	0.00	29.676 
19:05	46.5	46.5	46.5	64	35.0	2	6	270	0.00	29.680 
19:10	46.0	46.0	46.0	65	34.9	3	5	248	0.00	29.682 
19:15	45.5	43.7	45.5	65	34.4	4	10	270	0.00	29.685 
19:20	45.2	43.3	45.2	66	34.5	4	7	270	0.00	29.692 
19:25	44.8	42.9	44.8	66	34.1	4	11	270	0.00	29.693 
19:30	44.2	42.2	44.2	65	33.2	4	10	270	0.00	29.694 
19:35	43.8	43.8	43.8	65	32.8	3	9	270	0.00	29.694 
19:40	43.3	41.1	43.3	65	32.3	4	7	270	0.00	29.696 
19:45	43.2	43.2	43.2	66	32.6	2	5	270	0.00	29.697 
19:50	42.9	42.9	42.9	66	32.3	2	4	270	0.00	29.698 
19:55	42.8	42.8	42.8	67	32.6	2	7	248	0.00	29.696 
20:00	42.6	42.6	42.6	67	32.4	2	10	248	0.00	29.696 
20:05	42.5	42.5	42.5	67	32.3	1	5	270	0.00	29.694 
20:10	42.3	42.3	42.3	68	32.5	2	5	248	0.00	29.695 
20:15	42.2	42.2	42.2	67	32.0	2	7	248	0.00	29.695 
20:20	42.2	42.2	42.2	67	32.0	3	9	248	0.00	29.695 
20:25	42.1	42.1	42.1	66	31.6	3	7	248	0.00	29.694 
20:30	42.1	42.1	42.1	66	31.6	2	5	270	0.00	29.695 
20:35	41.9	41.9	41.9	65	31.0	3	7	270	0.00	29.695 
20:40	42.1	42.1	42.1	64	30.8	2	5	270	0.00	29.695 
20:45	42.1	42.1	42.1	64	30.8	2	4	248	0.00	29.696 
20:50	42.2	42.2	42.2	63	30.5	2	5	248	0.00	29.696 
20:55	42.3	42.3	42.3	62	30.2	1	3	248	0.00	29.696 
21:00	42.5	42.5	42.5	62	30.4	1	3	248	0.00	29.694 
21:05	42.6	42.6	42.6	62	30.5	2	6	248	0.00	29.692 
21:10	42.6	42.6	42.6	60	29.7	2	7	248	0.00	29.692 
21:15	42.8	42.8	42.8	59	29.5	3	8	270	0.00	29.691 
21:20	42.9	40.7	42.9	58	29.2	4	12	270	0.00	29.694 
21:25	42.9	40.7	42.9	57	28.7	4	9	270	0.00	29.693 
21:30	42.9	42.9	42.9	57	28.7	3	6	248	0.00	29.694 
21:35	42.9	42.9	42.9	57	28.7	2	8	270	0.00	29.694 
21:40	42.8	42.8	42.8	57	28.6	3	10	248	0.00	29.694 
21:45	42.8	42.8	42.8	57	28.6	3	6	248	0.00	29.695 
21:50	42.8	42.8	42.8	57	28.6	3	7	248	0.00	29.695 
21:55	42.8	42.8	42.8	58	29.1	3	6	248	0.00	29.693 
22:00	42.8	42.8	42.8	58	29.1	3	6	248	0.00	29.693 
22:05	42.8	42.8	42.8	58	29.1	2	6	248	0.00	29.689 
22:10	42.6	42.6	42.6	58	28.9	3	7	248	0.00	29.689 
22:15	42.6	42.6	42.6	58	28.9	2	5	248	0.00	29.689 
22:20	42.6	42.6	42.6	57	28.4	2	6	270	0.00	29.686 
22:25	42.6	42.6	42.6	57	28.4	2	6	248	0.00	29.686 
22:30	42.6	42.6	42.6	57	28.4	2	6	270	0.00	29.685 
22:35	42.6	42.6	42.6	57	28.4	3	7	248	0.00	29.683 
22:40	42.6	42.6	42.6	57	28.4	3	6	248	0.00	29.678 
22:45	42.6	42.6	42.6	56	28.0	3	11	248	0.00	29.675 
22:50	42.6	42.6	42.6	56	28.0	3	8	248	0.00	29.674 
22:55	42.6	42.6	42.6	57	28.4	3	7	248	0.00	29.673 
23:00	42.6	42.6	42.6	56	28.0	2	6	248	0.00	29.672 
23:05	42.6	42.6	42.6	56	28.0	2	5	248	0.00	29.671 
23:10	42.6	42.6	42.6	56	28.0	3	6	248	0.00	29.668 
23:15	42.6	42.6	42.6	56	28.0	1	4	248	0.00	29.663 
23:20	42.6	42.6	42.6	56	28.0	3	7	248	0.00	29.662 
23:25	42.6	42.6	42.6	56	28.0	2	9	248	0.00	29.661 
23:30	42.6	42.6	42.6	56	28.0	2	5	248	0.00	29.661 
23:35	42.6	42.6	42.6	57	28.4	2	6	248	0.00	29.660 
23:40	42.5	42.5	42.5	57	28.4	3	9	248	0.00	29.659 
23:45	42.3	42.3	42.3	57	28.2	3	11	248	0.00	29.658 
23:50	42.1	42.1	42.1	58	28.4	3	7	248	0.00	29.656 
23:55	41.9	41.9	41.9	58	28.2	2	6	248	0.00	29.657 

CoCoRaHS
IN-AL-39
A2 Web Hosting
Creative Commons License
GoDaddy
Look for:

loaded 2017-12-12 01:47:23 • last modified 2010-11-18 10:43:29
Privacy PolicyDisclaimer
• wx.awcolley.com is powered by PmWiki v.2002016 •
• all content (unless otherwise noted) © 2017 A W Colley